Time;durP1;ratioP1;P1;durP2;ratioP2;P2;SDS_P1;SDS_P2;PMS_P1;PMS_P2;Temp;Humidity;BMP_temperature;BMP_pressure;BME280_temperature;BME280_humidity;BME280_pressure;Samples;Min_cycle;Max_cycle;Signal;HPM_P1;HPM_P2
2022/11/23 00:00:56;;;;;;;8.60;5.07;;;;;;;7.15;77.77;92700.03;5062250;28;20020;-88
2022/11/23 00:03:21;;;;;;;12.05;6.05;;;;;;;7.20;77.82;92702.50;5063355;28;20350;-91
2022/11/23 00:05:47;;;;;;;9.68;4.93;;;;;;;7.27;78.11;92710.72;5063098;28;20021;-93
2022/11/23 00:08:12;;;;;;;10.43;5.97;;;;;;;7.30;78.31;92702.13;5063008;28;20021;-93
2022/11/23 00:10:38;;;;;;;11.82;6.57;;;;;;;7.38;77.89;92713.78;5062487;28;20319;-92
2022/11/23 00:13:03;;;;;;;15.35;5.38;;;;;;;7.36;75.77;92710.66;5063660;28;20036;-83
2022/11/23 00:15:29;;;;;;;13.82;5.32;;;;;;;7.27;76.16;92708.06;5062876;28;20091;-85
2022/11/23 00:17:54;;;;;;;12.20;5.68;;;;;;;7.15;77.42;92689.44;5062677;28;20086;-81
2022/11/23 00:20:20;;;;;;;9.88;3.85;;;;;;;7.06;78.11;92693.97;5062863;28;20024;-81
2022/11/23 00:22:45;;;;;;;6.05;3.38;;;;;;;6.98;77.71;92703.50;5062856;28;20244;-81
2022/11/23 00:25:11;;;;;;;6.22;3.10;;;;;;;6.92;78.10;92687.03;5062504;28;20021;-83
2022/11/23 00:27:36;;;;;;;5.85;3.10;;;;;;;6.94;78.61;92686.69;5062487;28;20020;-80
2022/11/23 00:30:02;;;;;;;5.68;3.00;;;;;;;6.95;78.07;92688.28;5062968;28;20017;-79
2022/11/23 00:32:30;;;;;;;5.13;2.95;;;;;;;6.96;78.81;92697.75;5062724;28;20017;-81
2022/11/23 00:34:55;;;;;;;6.07;3.20;;;;;;;6.96;79.09;92703.84;5062433;28;20139;-81
2022/11/23 00:37:21;;;;;;;5.68;2.80;;;;;;;6.99;79.23;92699.78;5062513;28;20033;-80
2022/11/23 00:39:46;;;;;;;6.18;2.67;;;;;;;7.03;79.40;92698.81;5062538;28;20048;-79
2022/11/23 00:42:12;;;;;;;6.30;2.63;;;;;;;7.07;79.79;92708.81;5062506;28;20369;-79
2022/11/23 00:44:37;;;;;;;8.82;3.08;;;;;;;7.12;79.83;92700.66;5062675;28;20017;-79
2022/11/23 00:47:02;;;;;;;7.15;3.65;;;;;;;7.17;80.17;92705.78;5062697;28;20021;-79
2022/11/23 00:49:28;;;;;;;9.20;3.70;;;;;;;7.27;80.98;92697.47;5062526;28;20044;-79
2022/11/23 00:51:53;;;;;;;8.45;2.92;;;;;;;7.36;80.77;92702.72;5062494;28;20037;-80
2022/11/23 00:54:19;;;;;;;8.52;3.67;;;;;;;7.41;80.70;92691.94;5062416;28;20200;-79
2022/11/23 00:56:44;;;;;;;7.05;3.45;;;;;;;7.50;80.92;92697.19;5062557;28;20045;-80
2022/11/23 00:59:10;;;;;;;8.77;4.03;;;;;;;7.56;80.89;92690.59;5062203;28;20059;-80
2022/11/23 01:01:38;;;;;;;8.43;3.78;;;;;;;7.59;80.74;92672.19;5062339;28;20265;-80
2022/11/23 01:04:05;;;;;;;8.48;4.25;;;;;;;7.63;80.99;92678.38;5062537;28;20033;-80
2022/11/23 01:06:34;;;;;;;11.30;4.32;;;;;;;7.69;80.90;92680.81;5062419;28;20219;-83
2022/11/23 01:09:23;;;;;;;8.73;4.25;;;;;;;7.71;80.88;92682.06;5062317;28;20308;-82
2022/11/23 01:11:49;;;;;;;6.75;4.22;;;;;;;7.76;80.95;92692.47;5062120;28;20311;-81
2022/11/23 01:14:16;;;;;;;7.45;2.65;;;;;;;7.76;80.96;92683.75;5062368;28;20025;-84
2022/11/23 01:16:42;;;;;;;5.55;2.63;;;;;;;7.77;80.53;92688.72;5062414;28;20079;-81
2022/11/23 01:19:12;;;;;;;5.35;3.20;;;;;;;7.78;80.48;92677.03;5062052;28;20040;-79
2022/11/23 01:21:38;;;;;;;5.30;3.08;;;;;;;7.78;80.29;92673.59;5062331;28;20028;-79
2022/11/23 01:24:12;;;;;;;6.75;3.50;;;;;;;7.82;80.00;92672.63;5062469;28;20025;-80
2022/11/23 01:26:38;;;;;;;6.28;3.65;;;;;;;7.83;80.03;92665.44;5061879;28;20058;-87
2022/11/23 01:29:04;;;;;;;7.03;3.63;;;;;;;7.86;80.35;92658.69;5062431;28;20024;-86
2022/11/23 01:31:29;;;;;;;7.00;3.03;;;;;;;7.90;80.44;92668.34;5061225;28;20025;-88
2022/11/23 01:33:59;;;;;;;8.50;3.30;;;;;;;7.92;80.56;92681.31;5062428;28;20235;-88
2022/11/23 01:36:34;;;;;;;6.03;3.00;;;;;;;7.90;79.99;92689.56;5064063;28;20371;-88
2022/11/23 01:39:01;;;;;;;4.85;2.72;;;;;;;7.84;79.66;92683.69;5066247;28;20354;-88
2022/11/23 01:41:29;;;;;;;6.88;3.58;;;;;;;7.75;79.77;92664.38;5066357;28;20035;-89
2022/11/23 01:43:56;;;;;;;7.85;3.13;;;;;;;7.77;79.72;92667.50;5065258;28;20028;-89
2022/11/23 01:46:22;;;;;;;5.45;3.15;;;;;;;7.81;79.79;92672.94;5066181;28;20024;-89
2022/11/23 01:49:00;;;;;;;6.85;3.90;;;;;;;7.83;80.14;92681.34;5066279;28;20024;-89
2022/11/23 01:51:29;;;;;;;7.28;3.38;;;;;;;7.86;80.52;92682.56;5066205;28;20083;-89
2022/11/23 01:54:01;;;;;;;12.52;3.17;;;;;;;7.87;80.53;92682.25;5066176;28;20024;-89
2022/11/23 01:56:33;;;;;;;11.32;3.17;;;;;;;7.90;80.79;92686.91;5066271;28;20021;-89
2022/11/23 01:59:01;;;;;;;9.10;3.63;;;;;;;7.92;80.64;92683.94;5066168;28;20056;-89
2022/11/23 02:01:27;;;;;;;8.02;4.45;;;;;;;7.92;80.88;92686.59;5065839;28;20147;-89
2022/11/23 02:03:57;;;;;;;7.18;4.32;;;;;;;7.95;80.72;92683.28;5064909;28;20020;-90
2022/11/23 02:06:23;;;;;;;9.27;4.57;;;;;;;7.96;80.62;92668.94;5065959;28;20029;-89
2022/11/23 02:08:51;;;;;;;6.47;3.50;;;;;;;7.97;80.88;92665.94;5065720;28;20048;-89
2022/11/23 02:11:17;;;;;;;7.78;3.92;;;;;;;7.99;80.86;92660.31;5065705;28;20029;-89
2022/11/23 02:13:46;;;;;;;7.85;3.58;;;;;;;8.02;80.57;92667.63;5065803;28;20025;-89
2022/11/23 02:16:12;;;;;;;9.85;4.45;;;;;;;8.01;80.44;92658.88;5065817;28;20046;-89
2022/11/23 02:18:42;;;;;;;7.35;3.83;;;;;;;8.05;80.57;92661.66;5065478;28;20033;-89
2022/11/23 02:21:07;;;;;;;8.57;4.07;;;;;;;8.04;80.63;92644.19;5064587;28;20025;-89
2022/11/23 02:23:33;;;;;;;7.22;4.18;;;;;;;8.04;80.68;92649.50;5065854;28;20036;-90
2022/11/23 02:26:23;;;;;;;6.85;3.83;;;;;;;8.05;80.36;92645.75;5065993;28;20219;-91
2022/11/23 02:28:58;;;;;;;7.47;3.88;;;;;;;8.04;80.14;92638.91;5064709;28;20046;-91
2022/11/23 02:31:23;;;;;;;5.35;3.08;;;;;;;8.02;80.16;92636.56;5064703;28;20100;-90
2022/11/23 02:33:49;;;;;;;7.15;3.28;;;;;;;8.02;79.67;92628.59;5065660;28;20021;-90
2022/11/23 02:36:45;;;;;;;6.72;3.55;;;;;;;8.00;79.28;92609.56;5065642;28;20088;-90
2022/11/23 02:39:14;;;;;;;4.70;2.42;;;;;;;7.98;79.40;92618.97;5065461;28;20101;-91
2022/11/23 02:41:47;;;;;;;5.45;2.80;;;;;;;7.90;79.48;92617.19;5065604;28;20017;-91
2022/11/23 02:44:50;;;;;;;6.40;2.90;;;;;;;7.86;79.30;92619.69;5064493;28;20112;-90
2022/11/23 02:47:15;;;;;;;7.15;4.00;;;;;;;7.75;79.48;92614.00;5064520;28;20039;-91
2022/11/23 02:49:44;;;;;;;6.78;3.28;;;;;;;7.68;79.82;92621.72;5065326;28;20025;-91
2022/11/23 02:52:10;;;;;;;6.35;3.85;;;;;;;7.57;80.45;92631.94;5064568;28;20017;-86
2022/11/23 02:54:35;;;;;;;7.05;4.07;;;;;;;7.51;80.78;92627.94;5064681;28;20028;-86
2022/11/23 02:57:00;;;;;;;6.97;4.22;;;;;;;7.46;81.31;92591.00;5064632;28;20032;-87
2022/11/23 02:59:26;;;;;;;8.63;4.20;;;;;;;7.48;81.65;92601.28;5064206;28;20100;-84
2022/11/23 03:01:52;;;;;;;9.43;4.65;;;;;;;7.46;82.04;92606.13;5062577;28;20064;-84
2022/11/23 03:04:17;;;;;;;8.32;5.10;;;;;;;7.44;82.17;92601.91;5064201;28;20067;-84
2022/11/23 03:06:43;;;;;;;10.20;5.57;;;;;;;7.47;82.35;92608.47;5062856;28;20035;-84
2022/11/23 03:09:08;;;;;;;10.00;5.43;;;;;;;7.39;81.78;92591.53;5063895;28;20020;-85
2022/11/23 03:11:34;;;;;;;10.35;5.88;;;;;;;7.31;82.00;92592.38;5064145;28;20032;-85
2022/11/23 03:13:59;;;;;;;9.82;5.57;;;;;;;7.31;82.16;92587.06;5063953;28;20021;-85
2022/11/23 03:16:25;;;;;;;8.13;5.22;;;;;;;7.31;82.43;92589.72;5063992;28;20705;-85
2022/11/23 03:18:51;;;;;;;11.02;5.57;;;;;;;7.34;82.41;92585.63;5063785;28;20204;-84
2022/11/23 03:21:16;;;;;;;12.32;6.28;;;;;;;7.35;82.58;92593.28;5062544;28;20048;-85
2022/11/23 03:23:42;;;;;;;10.10;5.60;;;;;;;7.39;82.35;92599.47;5063866;28;20099;-85
2022/11/23 03:26:08;;;;;;;12.23;6.40;;;;;;;7.41;82.13;92586.69;5063816;28;20021;-86
2022/11/23 03:28:33;;;;;;;16.20;6.68;;;;;;;7.43;82.15;92587.13;5062872;28;20055;-86
2022/11/23 03:30:59;;;;;;;9.88;5.65;;;;;;;7.46;82.17;92592.88;5062567;28;20346;-87
2022/11/23 03:33:24;;;;;;;10.43;6.35;;;;;;;7.44;82.00;92586.00;5063778;28;20036;-87
2022/11/23 03:35:50;;;;;;;13.20;6.80;;;;;;;7.44;82.13;92578.06;5062294;28;20393;-85
2022/11/23 03:38:15;;;;;;;9.73;6.38;;;;;;;7.46;81.96;92572.44;5063569;28;20385;-87
2022/11/23 03:40:44;;;;;;;17.80;6.35;;;;;;;7.43;81.88;92576.53;5063498;28;20020;-85
2022/11/23 03:43:10;;;;;;;10.80;6.25;;;;;;;7.41;81.46;92570.78;5063256;28;20021;-85
2022/11/23 03:45:35;;;;;;;10.90;6.63;;;;;;;7.38;81.55;92560.81;5063345;28;20025;-85
2022/11/23 03:48:01;;;;;;;9.70;5.50;;;;;;;7.38;81.22;92560.81;5063267;28;20335;-84
2022/11/23 03:50:28;;;;;;;11.05;6.20;;;;;;;7.34;81.61;92549.28;5063257;28;20025;-85
2022/11/23 03:52:54;;;;;;;10.68;5.80;;;;;;;7.33;81.67;92541.69;5063240;28;20025;-85
2022/11/23 03:55:19;;;;;;;9.50;5.32;;;;;;;7.31;81.55;92549.19;5061725;28;20095;-85
2022/11/23 03:57:47;;;;;;;14.35;6.07;;;;;;;7.26;81.69;92536.88;5063201;28;20096;-87
2022/11/23 04:00:13;;;;;;;8.73;5.60;;;;;;;7.23;81.86;92537.56;5062153;28;20035;-86
2022/11/23 04:02:40;;;;;;;10.40;5.60;;;;;;;7.19;81.86;92553.31;5062905;28;20239;-86
2022/11/23 04:05:06;;;;;;;10.18;5.30;;;;;;;7.14;82.03;92548.19;5063325;28;20219;-88
2022/11/23 04:07:31;;;;;;;8.45;4.97;;;;;;;7.10;82.33;92544.63;5063419;28;20091;-86
2022/11/23 04:09:57;;;;;;;8.85;4.47;;;;;;;7.09;82.52;92553.69;5063176;28;20025;-86
2022/11/23 04:12:23;;;;;;;8.95;4.97;;;;;;;7.09;82.60;92547.63;5063256;28;20070;-86
2022/11/23 04:14:48;;;;;;;8.40;4.55;;;;;;;7.12;82.65;92557.56;5062975;28;20025;-85
2022/11/23 04:17:14;;;;;;;8.80;5.25;;;;;;;7.12;82.46;92573.47;5062817;28;20027;-85
2022/11/23 04:19:39;;;;;;;6.55;4.25;;;;;;;7.02;82.66;92567.47;5062796;28;20024;-85
2022/11/23 04:22:05;;;;;;;12.48;4.82;;;;;;;6.92;82.67;92561.75;5061896;28;20025;-85
2022/11/23 04:24:30;;;;;;;12.93;5.90;;;;;;;6.83;82.89;92567.09;5062677;28;20017;-84
2022/11/23 04:26:55;;;;;;;11.30;5.63;;;;;;;6.81;83.17;92571.94;5062621;28;20044;-84
2022/11/23 04:29:21;;;;;;;11.00;6.13;;;;;;;6.65;83.55;92563.78;5062847;28;20090;-84
2022/11/23 04:31:46;;;;;;;9.70;5.82;;;;;;;6.65;83.97;92553.19;5062560;28;20074;-84
2022/11/23 04:34:12;;;;;;;10.25;5.47;;;;;;;6.62;84.10;92557.25;5062443;28;20071;-84
2022/11/23 04:36:37;;;;;;;9.32;5.35;;;;;;;6.59;84.20;92546.53;5062595;28;20032;-84
2022/11/23 04:39:03;;;;;;;10.98;5.32;;;;;;;6.57;84.38;92560.09;5062660;28;20299;-84
2022/11/23 04:41:29;;;;;;;9.93;5.35;;;;;;;6.55;84.53;92580.03;5062536;28;20207;-85
2022/11/23 04:43:54;;;;;;;8.20;4.68;;;;;;;6.45;84.96;92581.16;5061227;28;20025;-84
2022/11/23 04:46:20;;;;;;;8.38;5.43;;;;;;;6.34;85.59;92582.59;5062679;28;20024;-82
2022/11/23 04:48:45;;;;;;;10.48;5.47;;;;;;;6.30;85.85;92582.47;5062489;28;20013;-82
2022/11/23 04:51:11;;;;;;;12.93;6.40;;;;;;;6.18;86.23;92582.34;5062192;28;20017;-82
2022/11/23 04:53:36;;;;;;;14.55;6.85;;;;;;;6.13;87.11;92588.59;5062399;28;20307;-82
2022/11/23 04:56:02;;;;;;;13.75;8.00;;;;;;;6.11;87.26;92598.72;5062285;28;20016;-81
2022/11/23 04:58:28;;;;;;;15.90;6.57;;;;;;;6.13;87.34;92603.69;5062104;28;20315;-82
2022/11/23 05:00:53;;;;;;;12.02;7.20;;;;;;;6.13;87.34;92609.75;5062265;28;20060;-86
2022/11/23 05:03:19;;;;;;;12.55;7.43;;;;;;;6.11;87.62;92609.28;5062050;28;20041;-83
2022/11/23 05:05:44;;;;;;;13.43;8.15;;;;;;;6.20;87.83;92614.56;5060997;28;20031;-83
2022/11/23 05:08:10;;;;;;;13.00;8.10;;;;;;;6.16;87.51;92611.75;5061116;28;20088;-83
2022/11/23 05:10:36;;;;;;;13.95;8.57;;;;;;;6.19;87.63;92603.19;5062757;28;20307;-83
2022/11/23 05:13:02;;;;;;;18.83;10.30;;;;;;;6.18;87.94;92616.72;5066357;28;20017;-88
2022/11/23 05:15:28;;;;;;;17.05;9.50;;;;;;;6.15;88.34;92604.16;5065768;28;20021;-87
2022/11/23 05:18:00;;;;;;;18.52;11.20;;;;;;;6.15;88.56;92602.28;5066584;28;20060;-90
2022/11/23 05:20:25;;;;;;;16.27;9.55;;;;;;;6.10;88.83;92620.19;5067192;28;20017;-88
2022/11/23 05:22:50;;;;;;;16.98;10.45;;;;;;;6.12;89.63;92613.47;5066763;28;20338;-90
2022/11/23 05:25:16;;;;;;;18.48;11.40;;;;;;;6.17;89.88;92596.69;5066772;28;20258;-89
2022/11/23 05:27:41;;;;;;;21.15;12.23;;;;;;;6.26;89.93;92592.13;5066350;28;20048;-88
2022/11/23 05:30:07;;;;;;;24.48;11.32;;;;;;;6.34;88.74;92593.19;5066010;28;20197;-85
2022/11/23 05:32:33;;;;;;;22.80;12.35;;;;;;;6.37;88.37;92589.91;5066056;28;20099;-86
2022/11/23 05:34:58;;;;;;;24.45;12.40;;;;;;;6.42;88.64;92600.31;5066197;28;20279;-87
2022/11/23 05:37:24;;;;;;;22.90;12.63;;;;;;;6.52;88.26;92599.19;5065793;28;20028;-85
2022/11/23 05:39:49;;;;;;;21.10;13.00;;;;;;;6.58;88.19;92598.69;5066051;28;20032;-87
2022/11/23 05:42:14;;;;;;;18.30;11.80;;;;;;;6.66;88.19;92593.69;5066112;28;20031;-87
2022/11/23 05:44:40;;;;;;;23.15;13.10;;;;;;;6.75;88.03;92591.75;5066013;28;20057;-86
2022/11/23 05:47:06;;;;;;;21.02;12.45;;;;;;;6.85;87.31;92591.41;5065832;28;20088;-87
2022/11/23 05:49:32;;;;;;;21.92;13.43;;;;;;;6.95;86.39;92601.63;5065833;28;20028;-86
2022/11/23 05:51:57;;;;;;;20.73;12.68;;;;;;;7.03;86.20;92592.09;5064486;28;20117;-86
2022/11/23 05:54:23;;;;;;;20.98;12.07;;;;;;;7.14;85.59;92592.47;5064471;28;20024;-87
2022/11/23 05:56:48;;;;;;;22.23;11.93;;;;;;;7.17;85.16;92599.78;5065579;28;20247;-87
2022/11/23 05:59:14;;;;;;;22.33;12.93;;;;;;;7.18;85.40;92580.91;5064431;28;20025;-87
2022/11/23 06:01:39;;;;;;;20.00;12.32;;;;;;;7.22;85.28;92576.53;5063975;28;20048;-85
2022/11/23 06:04:05;;;;;;;23.98;14.02;;;;;;;7.26;85.05;92592.53;5065382;28;20371;-86
2022/11/23 06:06:31;;;;;;;20.25;11.65;;;;;;;7.27;84.92;92601.28;5065498;28;20078;-85
2022/11/23 06:08:56;;;;;;;26.27;15.38;;;;;;;7.28;85.14;92586.94;5065181;28;20021;-85
2022/11/23 06:11:22;;;;;;;37.75;24.35;;;;;;;7.34;85.47;92601.53;5065246;28;20089;-85
2022/11/23 06:13:48;;;;;;;25.27;16.17;;;;;;;7.34;84.51;92604.97;5065113;28;20262;-86
2022/11/23 06:16:14;;;;;;;26.52;14.77;;;;;;;7.23;84.33;92607.22;5065112;28;20066;-87
2022/11/23 06:18:39;;;;;;;22.30;14.88;;;;;;;7.20;84.84;92607.09;5065396;28;20049;-87
2022/11/23 06:21:05;;;;;;;22.17;15.13;;;;;;;7.25;85.25;92628.09;5065200;28;20171;-86
2022/11/23 06:23:30;;;;;;;16.17;10.48;;;;;;;7.23;84.29;92611.75;5064699;28;20092;-86
2022/11/23 06:25:59;;;;;;;16.73;11.25;;;;;;;7.24;84.52;92610.66;5065186;28;20024;-87
2022/11/23 06:28:26;;;;;;;16.73;10.43;;;;;;;7.29;nan;92626.38;5065304;28;20270;-86
2022/11/23 06:30:51;;;;;;;14.35;8.85;;;;;;;7.24;84.39;92608.00;5064832;28;20342;-85
2022/11/23 06:33:17;;;;;;;14.18;9.27;;;;;;;7.31;84.18;92608.28;5064747;28;20032;-85
2022/11/23 06:35:54;;;;;;;12.98;9.40;;;;;;;7.32;84.48;92620.41;5064806;28;20066;-86
2022/11/23 06:38:20;;;;;;;15.50;9.88;;;;;;;7.35;84.50;92619.78;5064432;28;20067;-85
2022/11/23 06:40:45;;;;;;;19.10;10.80;;;;;;;7.45;84.24;92618.63;5064471;28;20020;-85
2022/11/23 06:43:11;;;;;;;25.02;11.82;;;;;;;7.55;84.33;92628.84;5064409;28;20017;-85
2022/11/23 06:45:36;;;;;;;17.77;11.90;;;;;;;7.63;83.67;92620.03;5064568;28;20017;-83
2022/11/23 06:48:02;;;;;;;21.23;12.23;;;;;;;7.66;83.97;92621.25;5064316;28;20043;-82
2022/11/23 06:50:27;;;;;;;18.48;11.80;;;;;;;7.72;84.14;92630.56;5064453;28;20017;-82
2022/11/23 06:52:56;;;;;;;18.60;13.00;;;;;;;7.82;84.18;92611.59;5064414;28;20223;-82
2022/11/23 06:55:23;;;;;;;17.20;11.85;;;;;;;7.92;83.18;92609.66;5064186;28;20216;-89
2022/11/23 06:57:49;;;;;;;18.10;11.68;;;;;;;7.95;83.23;92609.00;5064199;28;20027;-85
2022/11/23 07:00:16;;;;;;;18.02;12.23;;;;;;;7.83;83.71;92615.78;5064754;28;20029;-91
2022/11/23 07:02:42;;;;;;;20.10;12.05;;;;;;;7.74;84.16;92604.50;5064655;28;20361;-92
2022/11/23 07:05:07;;;;;;;18.90;11.95;;;;;;;7.68;84.61;92597.84;5066246;28;20025;-91
2022/11/23 07:07:33;;;;;;;24.00;12.18;;;;;;;7.64;84.93;92607.56;5065677;28;20033;-93
2022/11/23 07:09:59;;;;;;;24.15;12.98;;;;;;;7.71;85.35;92605.13;5065465;28;20029;-92
2022/11/23 07:12:27;;;;;;;22.35;13.02;;;;;;;7.78;84.34;92616.00;5064043;28;20059;-91
2022/11/23 07:14:53;;;;;;;16.38;11.27;;;;;;;7.75;85.04;92621.94;5064219;28;20314;-90
2022/11/23 07:17:18;;;;;;;12.98;9.00;;;;;;;7.78;85.08;92623.19;5063719;28;20028;-90
2022/11/23 07:19:44;;;;;;;19.80;12.73;;;;;;;7.66;85.11;92607.22;5064359;28;20358;-89
2022/11/23 07:22:09;;;;;;;20.42;13.60;;;;;;;7.69;85.76;92617.94;5064796;28;20021;-89
2022/11/23 07:24:35;;;;;;;26.58;15.45;;;;;;;7.70;86.17;92616.09;5064622;28;20258;-89
2022/11/23 07:27:00;;;;;;;29.63;15.65;;;;;;;7.74;85.80;92640.88;5063972;28;20225;-89
2022/11/23 07:29:26;;;;;;;22.42;13.23;;;;;;;7.72;85.76;92643.84;5063440;28;20039;-90
2022/11/23 07:31:51;;;;;;;23.25;13.40;;;;;;;7.68;85.73;92642.94;5064188;28;20066;-89
2022/11/23 07:34:17;;;;;;;22.73;13.10;;;;;;;7.66;85.17;92629.22;5063681;28;20051;-90
2022/11/23 07:36:42;;;;;;;26.38;13.23;;;;;;;7.66;85.61;92623.91;5064565;28;20219;-90
2022/11/23 07:39:08;;;;;;;22.20;13.48;;;;;;;7.62;85.75;92630.97;5063335;28;20029;-89
2022/11/23 07:41:33;;;;;;;19.95;13.02;;;;;;;7.55;86.27;92644.75;5064551;28;20020;-93
2022/11/23 07:43:59;;;;;;;28.45;14.25;;;;;;;7.59;86.24;92648.31;5064532;28;20095;-92
2022/11/23 07:46:25;;;;;;;23.40;13.52;;;;;;;7.55;86.39;92643.94;5064353;28;20049;-91
2022/11/23 07:48:50;;;;;;;21.90;14.13;;;;;;;7.54;86.29;92626.50;5063348;28;20025;-91
2022/11/23 07:51:25;;;;;;;24.17;14.82;;;;;;;7.56;86.69;92609.16;5064869;28;20037;-91
2022/11/23 07:53:50;;;;;;;26.77;14.70;;;;;;;7.66;86.44;92628.44;5064278;28;20033;-90
2022/11/23 07:56:16;;;;;;;23.48;15.10;;;;;;;7.55;86.94;92633.34;5063964;28;20032;-91
2022/11/23 07:58:41;;;;;;;26.60;15.68;;;;;;;7.53;87.19;92623.09;5064117;28;20029;-91
2022/11/23 08:01:13;;;;;;;30.10;18.63;;;;;;;7.54;87.21;92621.97;5063988;28;20032;-86
2022/11/23 08:04:22;;;;;;;24.13;15.93;;;;;;;7.52;86.97;92628.72;5064531;28;20040;-96
2022/11/23 08:15:22;;;;;;;22.10;12.30;;;;;;;7.84;85.64;92604.09;6025224;23;21027;-72
2022/11/23 08:17:48;;;;;;;22.92;13.80;;;;;;;7.96;86.80;92605.25;4983897;28;20106;-87
2022/11/23 08:20:14;;;;;;;18.38;11.90;;;;;;;8.09;86.91;92598.09;4984255;28;20321;-87
2022/11/23 08:22:39;;;;;;;26.33;14.60;;;;;;;8.21;86.45;92577.66;4984520;28;20050;-88
2022/11/23 08:25:05;;;;;;;23.05;13.55;;;;;;;8.28;84.23;92589.63;4984299;28;20233;-82
2022/11/23 08:27:31;;;;;;;26.92;13.68;;;;;;;8.28;83.98;92610.84;5015500;28;20261;-80
2022/11/23 08:29:56;;;;;;;27.35;12.43;;;;;;;8.27;83.84;92612.75;4983902;28;20090;-82
2022/11/23 08:32:21;;;;;;;23.88;13.98;;;;;;;8.24;84.20;92608.88;5015706;28;20030;-85
2022/11/23 08:34:47;;;;;;;28.33;13.85;;;;;;;8.24;83.71;92605.41;4984783;28;20094;-86
2022/11/23 08:37:12;;;;;;;27.92;15.57;;;;;;;8.35;83.08;92627.03;4984831;28;20078;-84
2022/11/23 08:39:38;;;;;;;27.52;14.75;;;;;;;8.32;82.41;92601.13;4984532;28;20094;-89
2022/11/23 08:42:03;;;;;;;25.42;15.18;;;;;;;8.34;82.92;92598.91;4984585;28;20103;-86
2022/11/23 08:44:29;;;;;;;23.08;15.27;;;;;;;8.43;83.28;92611.03;4984235;28;20101;-88
2022/11/23 08:46:54;;;;;;;23.52;15.48;;;;;;;8.58;82.94;92625.53;4987836;28;20342;-90
2022/11/23 08:49:20;;;;;;;24.27;12.70;;;;;;;8.60;82.27;92626.00;4988135;28;20058;-89
2022/11/23 08:51:45;;;;;;;29.90;16.55;;;;;;;8.69;82.53;92631.22;4986844;28;20097;-87
2022/11/23 08:54:11;;;;;;;26.75;16.40;;;;;;;8.83;82.29;92625.56;4988032;28;20019;-84
2022/11/23 08:56:36;;;;;;;24.13;14.68;;;;;;;8.94;81.50;92609.97;4987764;28;20019;-82
2022/11/23 08:59:02;;;;;;;33.97;20.80;;;;;;;9.07;81.49;92627.44;4988112;28;20030;-89
2022/11/23 09:01:27;;;;;;;26.70;17.10;;;;;;;9.10;81.53;92628.66;4988187;28;20018;-84
2022/11/23 09:03:58;;;;;;;24.48;15.30;;;;;;;9.17;81.86;92631.56;4988022;28;20019;-95
2022/11/23 09:06:28;;;;;;;25.02;14.52;;;;;;;9.25;80.77;92635.97;4988969;28;20213;-93
2022/11/23 09:08:54;;;;;;;25.02;14.43;;;;;;;9.31;80.38;92626.66;4986603;28;20042;-84
2022/11/23 09:11:25;;;;;;;26.65;15.82;;;;;;;9.32;80.33;92620.25;4988474;28;20026;-95
2022/11/23 09:14:11;;;;;;;27.92;16.88;;;;;;;9.38;80.39;92604.81;4988507;28;20019;-87
2022/11/23 09:16:37;;;;;;;30.05;17.15;;;;;;;9.44;80.13;92606.13;5019355;28;20337;-87
2022/11/23 09:19:02;;;;;;;28.95;17.42;;;;;;;9.56;80.19;92613.31;4987288;28;20038;-89
2022/11/23 09:21:32;;;;;;;30.05;17.73;;;;;;;9.60;80.83;92611.53;4988732;28;20026;-93
2022/11/23 09:23:58;;;;;;;27.52;18.25;;;;;;;9.68;80.88;92592.00;4988145;28;20340;-94
2022/11/23 09:26:24;;;;;;;33.28;18.52;;;;;;;9.80;80.58;92588.53;4987840;28;20034;-94
2022/11/23 09:28:50;;;;;;;28.58;16.77;;;;;;;9.87;79.90;92599.38;4988845;28;20042;-95
2022/11/23 09:31:15;;;;;;;31.00;16.13;;;;;;;9.90;79.01;92595.25;5020180;28;20054;-89
2022/11/23 09:33:41;;;;;;;32.45;18.10;;;;;;;9.92;78.89;92593.81;4987265;28;20142;-93
2022/11/23 09:36:07;;;;;;;29.52;17.98;;;;;;;9.98;78.77;92591.69;4988441;28;20308;-93
2022/11/23 09:38:32;;;;;;;34.40;17.25;;;;;;;10.02;78.82;92571.25;4988597;28;20026;-94
2022/11/23 09:41:33;;;;;;;29.05;19.27;;;;;;;10.05;79.02;92597.16;4988652;28;20029;-95
2022/11/23 09:44:09;;;;;;;31.75;17.48;;;;;;;10.04;78.84;92596.41;5019525;28;20073;-93
2022/11/23 09:46:54;;;;;;;29.67;17.88;;;;;;;10.08;79.26;92603.72;4987005;28;20029;-89
2022/11/23 09:49:32;;;;;;;28.20;15.52;;;;;;;10.14;78.56;92608.47;4987572;28;20026;-88
2022/11/23 09:52:04;;;;;;;27.27;17.23;;;;;;;10.24;78.63;92593.88;5019655;28;20029;-94
2022/11/23 09:54:35;;;;;;;29.55;16.98;;;;;;;10.36;77.84;92588.50;4986954;28;20029;-91
2022/11/23 09:57:04;;;;;;;25.67;14.85;;;;;;;10.43;76.42;92561.28;4987570;28;20042;-93
2022/11/23 09:59:43;;;;;;;23.35;12.00;;;;;;;10.44;74.75;92590.25;4987511;28;20062;-96
2022/11/23 10:02:23;;;;;;;17.35;11.35;;;;;;;10.46;74.56;92591.78;4987074;28;20027;-89
2022/11/23 10:04:54;;;;;;;20.30;11.82;;;;;;;10.43;76.13;92590.56;4986433;28;20034;-91
2022/11/23 10:07:20;;;;;;;22.65;11.57;;;;;;;10.55;75.34;92569.19;4986966;28;20268;-88
2022/11/23 10:10:18;;;;;;;16.48;10.30;;;;;;;10.63;73.71;92584.22;5018104;28;20031;-87
2022/11/23 10:12:44;;;;;;;17.52;9.70;;;;;;;10.72;73.99;92581.38;4986810;28;20139;-89
2022/11/23 10:15:17;;;;;;;17.05;11.18;;;;;;;10.84;75.18;92588.50;4987298;28;20023;-91
2022/11/23 10:18:33;;;;;;;16.27;9.68;;;;;;;10.99;74.46;92587.75;4987694;28;20031;-95
2022/11/23 10:21:18;;;;;;;19.60;12.38;;;;;;;11.13;73.36;92583.84;4963704;28;20102;-93
2022/11/23 10:23:56;;;;;;;18.30;11.77;;;;;;;11.22;73.34;92576.44;4986727;28;20086;-93
2022/11/23 10:26:43;;;;;;;20.48;9.90;;;;;;;11.34;72.94;92584.31;4986753;28;20314;-92
2022/11/23 10:29:24;;;;;;;20.65;10.75;;;;;;;11.48;73.09;92585.72;4987160;28;20022;-96
2022/11/23 10:31:53;;;;;;;18.90;10.38;;;;;;;11.56;70.94;92580.22;4986861;28;20094;-96
2022/11/23 10:34:55;;;;;;;18.80;9.32;;;;;;;11.54;68.51;92574.44;5018380;28;20026;-96
2022/11/23 10:37:24;;;;;;;22.60;11.30;;;;;;;11.59;68.85;92571.50;4985289;28;20368;-88
2022/11/23 10:39:50;;;;;;;18.73;9.35;;;;;;;11.74;68.67;92574.44;4986050;28;20097;-87
2022/11/23 10:42:59;;;;;;;16.88;9.45;;;;;;;11.84;69.20;92565.88;4985755;28;20249;-88
2022/11/23 10:46:03;;;;;;;19.90;9.07;;;;;;;11.91;69.88;92558.03;4986115;28;20019;-89
2022/11/23 10:48:36;;;;;;;18.13;9.30;;;;;;;12.11;70.46;92569.47;4943023;29;20032;-88
2022/11/23 10:51:16;;;;;;;21.02;10.35;;;;;;;12.26;70.16;92559.06;4985917;28;20065;-89
2022/11/23 10:53:52;;;;;;;29.25;10.65;;;;;;;12.35;69.59;92570.28;4985823;28;20264;-88
2022/11/23 10:56:18;;;;;;;18.63;10.38;;;;;;;12.38;69.02;92556.22;5017073;28;20027;-88
2022/11/23 10:58:45;;;;;;;29.63;9.93;;;;;;;12.34;68.28;92564.16;4985395;28;20038;-88
2022/11/23 11:01:29;;;;;;;28.02;12.93;;;;;;;12.39;68.67;92563.84;4985258;28;20027;-89
2022/11/23 11:03:58;;;;;;;19.17;11.00;;;;;;;12.43;68.89;92556.66;4984621;28;20324;-89
2022/11/23 11:06:29;;;;;;;15.90;10.30;;;;;;;12.44;69.13;92563.56;4985638;28;20027;-89
2022/11/23 11:08:57;;;;;;;11.98;6.90;;;;;;;12.49;68.64;92559.81;4984937;28;20027;-89
2022/11/23 11:11:34;;;;;;;10.27;6.47;;;;;;;12.57;68.15;92556.16;4985590;28;20329;-89
2022/11/23 11:14:12;;;;;;;12.77;7.25;;;;;;;12.70;68.36;92558.63;4984168;28;20027;-88
2022/11/23 11:16:47;;;;;;;14.00;7.03;;;;;;;12.83;67.34;92568.03;4985471;28;20211;-89
2022/11/23 11:19:29;;;;;;;9.10;6.45;;;;;;;12.92;65.55;92567.78;4984309;28;20053;-91
2022/11/23 11:21:56;;;;;;;9.98;5.53;;;;;;;12.91;64.77;92566.25;4985908;28;20034;-91
2022/11/23 11:24:32;;;;;;;7.85;4.93;;;;;;;12.98;64.58;92574.34;4985423;28;20022;-90
2022/11/23 11:27:05;;;;;;;13.15;6.07;;;;;;;12.94;62.94;92560.16;5017273;28;20023;-90
2022/11/23 11:29:38;;;;;;;10.70;5.03;;;;;;;12.95;63.18;92559.81;4984403;28;20033;-90
2022/11/23 11:32:18;;;;;;;6.65;4.45;;;;;;;12.99;63.01;92555.28;4985983;28;20030;-90
2022/11/23 11:34:55;;;;;;;11.80;6.55;;;;;;;12.98;60.61;92551.06;5017091;28;20026;-90
2022/11/23 11:37:41;;;;;;;10.00;5.70;;;;;;;13.03;62.35;92544.66;5017334;28;20050;-91
2022/11/23 11:43:33;;;;;;;12.75;4.00;;;;;;;13.21;60.21;92534.22;4985677;28;20029;-93
2022/11/23 11:46:09;;;;;;;7.93;3.67;;;;;;;13.37;59.55;92532.16;4984360;28;20065;-93
2022/11/23 11:48:46;;;;;;;7.00;3.30;;;;;;;13.55;58.91;92540.41;4984743;28;20029;-91
2022/11/23 11:51:26;;;;;;;6.80;3.97;;;;;;;13.79;56.87;92533.03;4984484;28;20026;-94